createdAt,value
2019-03-24T00:02:12.555Z,20.23
2019-03-24T00:04:43.819Z,24.90
2019-03-24T00:07:14.596Z,18.53
2019-03-24T00:09:45.476Z,19.37
2019-03-24T00:12:21.612Z,18.20
2019-03-24T00:14:52.399Z,20.67
2019-03-24T00:17:23.232Z,17.17
2019-03-24T00:19:54.053Z,22.67
2019-03-24T00:22:24.885Z,23.73
2019-03-24T00:24:55.729Z,21.30
2019-03-24T00:27:26.727Z,24.63
2019-03-24T00:29:57.995Z,19.03
2019-03-24T00:32:28.857Z,19.67
2019-03-24T00:34:59.653Z,23.43
2019-03-24T00:37:30.485Z,19.47
2019-03-24T00:40:01.413Z,24.20
2019-03-24T00:42:32.304Z,20.00
2019-03-24T00:45:03.112Z,25.33
2019-03-24T00:47:36.881Z,26.50
2019-03-24T00:50:10.559Z,18.57
2019-03-24T00:52:41.396Z,29.83
2019-03-24T00:55:12.999Z,23.77
2019-03-24T00:57:43.823Z,18.77
2019-03-24T01:00:15.507Z,22.37
2019-03-24T01:02:46.355Z,23.23
2019-03-24T01:05:17.260Z,21.93
2019-03-24T01:07:48.106Z,21.53
2019-03-24T01:10:19.074Z,18.10
2019-03-24T01:12:49.990Z,22.37
2019-03-24T01:15:20.800Z,23.37
2019-03-24T01:17:51.678Z,15.27
2019-03-24T01:20:25.530Z,15.10
2019-03-24T01:22:56.387Z,19.33
2019-03-24T01:25:27.185Z,19.00
2019-03-24T01:27:58.155Z,21.37
2019-03-24T01:30:29.157Z,20.43
2019-03-24T01:33:00.119Z,26.90
2019-03-24T01:35:32.490Z,28.17
2019-03-24T01:38:03.400Z,30.93
2019-03-24T01:40:34.206Z,22.73
2019-03-24T01:43:05.136Z,21.37
2019-03-24T01:45:35.889Z,26.40
2019-03-24T01:48:06.808Z,25.80
2019-03-24T01:50:37.770Z,29.87
2019-03-24T01:53:10.224Z,23.13
2019-03-24T01:55:41.011Z,27.17
2019-03-24T01:58:15.232Z,26.83
2019-03-24T02:00:45.809Z,21.30
2019-03-24T02:03:18.018Z,30.57
2019-03-24T02:05:50.449Z,21.80
2019-03-24T02:08:21.308Z,19.87
2019-03-24T02:10:52.241Z,25.67
2019-03-24T02:13:23.304Z,25.80
2019-03-24T02:15:57.207Z,21.73
2019-03-24T02:18:28.130Z,19.03
2019-03-24T02:20:58.915Z,23.43
2019-03-24T02:23:29.923Z,16.07
2019-03-24T02:26:00.739Z,24.20
2019-03-24T02:28:31.705Z,18.77
2019-03-24T02:31:02.560Z,16.37
2019-03-24T02:33:33.391Z,17.57
2019-03-24T02:36:04.263Z,20.80
2019-03-24T02:38:35.190Z,22.60
2019-03-24T02:41:06.060Z,26.27
2019-03-24T02:43:36.904Z,25.53
2019-03-24T02:46:07.776Z,29.87
2019-03-24T02:48:38.600Z,25.23
2019-03-24T02:51:09.433Z,17.20
2019-03-24T02:53:40.526Z,19.27
2019-03-24T02:56:11.455Z,21.53
2019-03-24T02:58:42.242Z,21.70
2019-03-24T03:01:13.090Z,30.73
2019-03-24T03:03:44.032Z,27.70
2019-03-24T03:06:14.866Z,19.70
2019-03-24T03:08:45.699Z,17.77
2019-03-24T03:11:18.076Z,20.43
2019-03-24T03:13:50.461Z,26.43
2019-03-24T03:16:21.366Z,15.73
2019-03-24T03:18:52.259Z,19.77
2019-03-24T03:21:23.211Z,22.97
2019-03-24T03:23:54.117Z,26.10
2019-03-24T03:26:26.183Z,27.07
2019-03-24T03:28:59.000Z,18.70
2019-03-24T03:31:30.076Z,19.70
2019-03-24T03:34:01.104Z,15.63
2019-03-24T03:36:34.889Z,28.63
2019-03-24T03:39:08.221Z,32.13
2019-03-24T03:41:39.742Z,22.10
2019-03-24T03:44:12.277Z,16.23
2019-03-24T03:46:52.362Z,32.33
2019-03-24T03:49:17.344Z,32.97
2019-03-24T03:51:48.260Z,24.90
2019-03-24T03:54:19.196Z,24.40
2019-03-24T03:56:50.126Z,25.43
2019-03-24T03:59:20.963Z,26.70
2019-03-24T04:01:51.905Z,25.53
2019-03-24T04:04:22.884Z,27.67
2019-03-24T04:06:53.805Z,14.90
2019-03-24T04:09:27.273Z,26.03
2019-03-24T04:11:58.261Z,20.20
2019-03-24T04:14:29.223Z,18.10
2019-03-24T04:17:07.410Z,21.17
2019-03-24T04:19:35.005Z,17.03
2019-03-24T04:22:06.888Z,22.73
2019-03-24T04:24:37.828Z,18.70
2019-03-24T04:27:08.830Z,21.60
2019-03-24T04:29:39.764Z,21.23
2019-03-24T04:32:10.654Z,25.10
2019-03-24T04:34:41.515Z,21.13
2019-03-24T04:37:12.400Z,20.33
2019-03-24T04:39:43.267Z,21.63
2019-03-24T04:42:14.042Z,15.00
2019-03-24T04:44:47.882Z,20.97
2019-03-24T04:47:20.103Z,17.03
2019-03-24T04:49:50.847Z,16.83
2019-03-24T04:52:24.571Z,18.83
2019-03-24T04:54:55.500Z,18.33
2019-03-24T04:57:28.792Z,23.87
2019-03-24T04:59:59.613Z,16.63
2019-03-24T05:02:30.575Z,17.43
2019-03-24T05:05:01.367Z,16.57
2019-03-24T05:07:33.364Z,15.07
2019-03-24T05:10:04.612Z,19.20
2019-03-24T05:12:35.793Z,17.10
2019-03-24T05:15:06.792Z,17.87
2019-03-24T05:17:37.639Z,21.53
2019-03-24T05:20:08.506Z,13.80
2019-03-24T05:22:39.330Z,19.20
2019-03-24T05:25:10.262Z,22.03
2019-03-24T05:27:41.201Z,21.70
2019-03-24T05:30:12.028Z,19.80
2019-03-24T05:32:44.910Z,17.63
2019-03-24T05:35:15.780Z,14.60
2019-03-24T05:37:46.576Z,21.70
2019-03-24T05:40:17.427Z,27.43
2019-03-24T05:42:49.213Z,21.77
2019-03-24T05:45:20.197Z,23.70
2019-03-24T05:47:51.027Z,13.30
2019-03-24T05:50:23.057Z,20.80
2019-03-24T05:52:53.894Z,26.20
2019-03-24T05:55:24.773Z,21.50
2019-03-24T05:57:55.636Z,24.13
2019-03-24T06:00:27.636Z,28.50
2019-03-24T06:02:58.504Z,25.27
2019-03-24T06:05:29.332Z,15.10
2019-03-24T06:08:01.068Z,25.57
2019-03-24T06:10:32.862Z,25.70
2019-03-24T06:13:07.449Z,22.67
2019-03-24T06:15:39.963Z,22.07
2019-03-24T06:18:10.819Z,30.43
2019-03-24T06:20:41.670Z,22.90
2019-03-24T06:23:12.520Z,21.00
2019-03-24T06:25:43.409Z,30.57
2019-03-24T06:28:15.310Z,22.83
2019-03-24T06:30:46.156Z,19.07
2019-03-24T06:33:19.311Z,27.47
2019-03-24T06:35:50.205Z,23.47
2019-03-24T06:38:27.837Z,25.37
2019-03-24T06:40:58.903Z,22.37
2019-03-24T06:43:29.716Z,31.57
2019-03-24T06:46:00.705Z,27.27
2019-03-24T06:48:31.587Z,27.53
2019-03-24T06:51:02.525Z,25.60
2019-03-24T06:53:33.569Z,26.80
2019-03-24T06:56:04.393Z,30.27
2019-03-24T06:58:36.640Z,24.97
2019-03-24T07:01:07.621Z,26.33
2019-03-24T07:03:38.552Z,39.30
2019-03-24T07:06:09.549Z,29.10
2019-03-24T07:08:41.672Z,24.73
2019-03-24T07:11:13.893Z,25.37
2019-03-24T07:13:45.123Z,35.87
2019-03-24T07:16:18.561Z,30.17
2019-03-24T07:18:51.337Z,30.27
2019-03-24T07:21:23.815Z,25.03
2019-03-24T07:23:54.667Z,38.67
2019-03-24T07:26:25.552Z,30.83
2019-03-24T07:28:58.040Z,37.13
2019-03-24T07:31:31.844Z,35.07
2019-03-24T07:34:02.987Z,28.73
2019-03-24T07:36:33.896Z,29.90
2019-03-24T07:39:06.983Z,30.63
2019-03-24T07:41:38.768Z,38.03
2019-03-24T07:44:09.703Z,30.80
2019-03-24T07:46:40.723Z,26.60
2019-03-24T07:49:11.706Z,28.00
2019-03-24T07:51:42.737Z,26.50
2019-03-24T07:54:16.030Z,37.80
2019-03-24T07:56:47.658Z,34.33
2019-03-24T07:59:18.676Z,26.23
2019-03-24T08:01:49.536Z,34.50
2019-03-24T08:04:20.472Z,32.23
2019-03-24T08:06:51.583Z,38.17
2019-03-24T08:09:22.525Z,35.50
2019-03-24T08:11:55.950Z,29.30
2019-03-24T08:14:29.740Z,42.90
2019-03-24T08:17:00.679Z,26.87
2019-03-24T08:19:31.678Z,27.50
2019-03-24T08:22:02.877Z,21.30
2019-03-24T08:24:33.997Z,31.50
2019-03-24T08:27:06.439Z,27.37
2019-03-24T08:29:37.563Z,40.07
2019-03-24T08:32:08.605Z,29.33
2019-03-24T08:34:39.529Z,38.10
2019-03-24T08:37:10.527Z,32.67
2019-03-24T08:39:41.588Z,36.13
2019-03-24T08:42:12.669Z,27.17
2019-03-24T08:44:43.717Z,28.70
2019-03-24T08:47:14.722Z,38.80
2019-03-24T08:49:45.968Z,41.60
2019-03-24T08:52:16.885Z,40.00
2019-03-24T08:54:47.742Z,30.70
2019-03-24T08:57:18.806Z,38.27
2019-03-24T08:59:51.400Z,43.43
2019-03-24T09:02:23.768Z,24.20
2019-03-24T09:04:54.607Z,38.20
2019-03-24T09:07:25.487Z,38.07
2019-03-24T09:09:56.277Z,37.20
2019-03-24T09:12:27.178Z,44.20
2019-03-24T09:14:58.204Z,26.00
2019-03-24T09:17:29.124Z,34.70
2019-03-24T09:20:02.458Z,32.63
2019-03-24T09:22:33.376Z,40.03
2019-03-24T09:25:04.296Z,28.03
2019-03-24T09:27:35.170Z,41.67
2019-03-24T09:30:08.605Z,28.57
2019-03-24T09:32:39.585Z,30.80
2019-03-24T09:35:10.665Z,28.43
2019-03-24T09:37:41.499Z,31.53
2019-03-24T09:40:18.493Z,32.17
2019-03-24T09:42:48.564Z,27.83
2019-03-24T09:45:19.554Z,27.37
2019-03-24T09:47:50.530Z,19.20
2019-03-24T09:50:21.689Z,23.77
2019-03-24T09:52:53.823Z,28.20
2019-03-24T09:55:24.755Z,18.63
2019-03-24T09:57:55.636Z,22.90
2019-03-24T10:00:26.552Z,28.90
2019-03-24T10:02:57.476Z,16.53
2019-03-24T10:05:29.890Z,18.07
2019-03-24T10:08:00.816Z,17.00
2019-03-24T10:10:31.705Z,14.50
2019-03-24T10:13:02.659Z,15.73
2019-03-24T10:15:34.712Z,19.67
2019-03-24T10:18:05.758Z,25.40
2019-03-24T10:20:38.246Z,27.30
2019-03-24T10:23:09.150Z,16.17
2019-03-24T10:25:41.571Z,16.53
2019-03-24T10:28:12.559Z,18.73
2019-03-24T10:30:43.483Z,19.27
2019-03-24T10:33:14.371Z,16.10
2019-03-24T10:35:46.423Z,18.30
2019-03-24T10:38:17.439Z,18.47
2019-03-24T10:40:48.382Z,20.50
2019-03-24T10:43:19.479Z,15.90
2019-03-24T10:45:51.911Z,13.93
2019-03-24T10:48:33.117Z,13.43
2019-03-24T10:50:55.759Z,19.27
2019-03-24T10:53:26.740Z,15.43
2019-03-24T10:55:57.652Z,19.17
2019-03-24T10:58:28.727Z,18.10
2019-03-24T11:00:59.622Z,18.30
2019-03-24T11:03:32.584Z,14.63
2019-03-24T11:06:06.550Z,14.43
2019-03-24T11:08:37.612Z,21.57
2019-03-24T11:11:08.588Z,24.60
2019-03-24T11:13:42.111Z,18.53
2019-03-24T11:16:13.175Z,11.87
2019-03-24T11:18:45.235Z,16.93
2019-03-24T11:21:17.799Z,15.57
2019-03-24T11:23:48.806Z,19.10
2019-03-24T11:26:19.875Z,15.40
2019-03-24T11:28:50.920Z,9.33
2019-03-24T11:31:23.522Z,16.30
2019-03-24T11:33:57.747Z,17.27
2019-03-24T11:36:28.767Z,16.97
2019-03-24T11:38:59.591Z,18.07
2019-03-24T11:41:30.709Z,16.27
2019-03-24T11:44:04.639Z,9.57
2019-03-24T11:46:37.029Z,14.60
2019-03-24T11:49:16.584Z,14.30
2019-03-24T11:51:47.741Z,18.03
2019-03-24T11:54:18.721Z,17.73
2019-03-24T11:56:49.832Z,13.80
2019-03-24T11:59:20.784Z,14.20
2019-03-24T12:01:51.758Z,15.57
2019-03-24T12:04:22.758Z,15.77
2019-03-24T12:06:54.008Z,15.43
2019-03-24T12:09:24.998Z,15.97
2019-03-24T12:11:57.623Z,15.60
2019-03-24T12:14:28.727Z,17.77
2019-03-24T12:16:59.756Z,15.77
2019-03-24T12:19:34.844Z,15.77
2019-03-24T12:22:07.728Z,19.03
2019-03-24T12:24:41.933Z,16.47
2019-03-24T12:27:12.983Z,18.93
2019-03-24T12:29:44.089Z,15.80
2019-03-24T12:32:15.669Z,14.73
2019-03-24T12:34:47.777Z,15.07
2019-03-24T12:37:19.327Z,16.33
2019-03-24T12:39:50.244Z,16.53
2019-03-24T12:42:23.869Z,16.87
2019-03-24T12:44:54.776Z,13.60
2019-03-24T12:47:28.630Z,21.23
2019-03-24T12:50:08.331Z,23.53
2019-03-24T12:52:32.266Z,19.43
2019-03-24T12:55:04.964Z,16.33
2019-03-24T12:57:37.044Z,13.23
2019-03-24T13:00:10.680Z,10.67
2019-03-24T13:02:41.666Z,15.60
2019-03-24T13:05:14.321Z,17.50
2019-03-24T13:07:45.309Z,18.40
2019-03-24T13:10:16.241Z,11.60
2019-03-24T13:12:47.050Z,14.37
2019-03-24T13:15:19.944Z,14.10
2019-03-24T13:17:50.762Z,18.37
2019-03-24T13:20:36.488Z,13.70
2019-03-24T13:22:57.652Z,17.93
2019-03-24T13:25:30.026Z,18.60
2019-03-24T13:28:00.870Z,16.90
2019-03-24T13:30:33.383Z,16.77
2019-03-24T13:33:04.379Z,12.47
2019-03-24T13:35:35.323Z,12.80
2019-03-24T13:38:06.247Z,16.47
2019-03-24T13:40:37.254Z,11.63
2019-03-24T13:43:08.126Z,14.63
2019-03-24T13:45:39.164Z,13.00
2019-03-24T13:48:10.093Z,17.90
2019-03-24T13:50:40.996Z,16.53
2019-03-24T13:53:11.840Z,12.80
2019-03-24T13:55:42.750Z,13.10
2019-03-24T13:58:13.609Z,18.73
2019-03-24T14:00:44.541Z,14.73
2019-03-24T14:03:15.336Z,20.27
2019-03-24T14:05:46.269Z,19.17
2019-03-24T14:08:17.100Z,11.47
2019-03-24T14:10:48.017Z,17.10
2019-03-24T14:13:18.838Z,17.17
2019-03-24T14:15:50.983Z,10.60
2019-03-24T14:18:22.920Z,17.03
2019-03-24T14:20:53.898Z,15.67
2019-03-24T14:23:24.909Z,23.23
2019-03-24T14:25:57.064Z,18.17
2019-03-24T14:28:28.031Z,17.33
2019-03-24T14:30:58.965Z,15.87
2019-03-24T14:33:31.681Z,14.83
2019-03-24T14:36:02.731Z,15.37
2019-03-24T14:38:33.730Z,15.43
2019-03-24T14:41:04.681Z,17.50
2019-03-24T14:43:37.531Z,13.57
2019-03-24T14:46:09.157Z,13.80
2019-03-24T14:48:40.124Z,14.33
2019-03-24T14:51:11.058Z,20.20
2019-03-24T14:53:43.311Z,15.43
2019-03-24T14:56:15.382Z,20.00
2019-03-24T14:58:46.348Z,15.73
2019-03-24T15:01:17.455Z,13.37
2019-03-24T15:03:48.597Z,16.43
2019-03-24T15:06:19.719Z,17.63
2019-03-24T15:08:50.897Z,17.07
2019-03-24T15:11:21.907Z,13.83
2019-03-24T15:13:54.637Z,12.80
2019-03-24T15:16:25.575Z,14.97
2019-03-24T15:18:56.515Z,17.20
2019-03-24T15:21:27.400Z,12.23
2019-03-24T15:23:58.460Z,12.60
2019-03-24T15:26:29.384Z,12.20
2019-03-24T15:29:00.376Z,15.17
2019-03-24T15:31:31.327Z,19.77
2019-03-24T15:34:04.921Z,13.37
2019-03-24T15:36:36.029Z,16.27
2019-03-24T15:39:10.552Z,20.00
2019-03-24T15:41:41.946Z,21.50
2019-03-24T15:44:13.160Z,16.80
2019-03-24T15:46:47.254Z,14.33
2019-03-24T15:49:19.193Z,16.67
2019-03-24T15:51:50.141Z,14.53
2019-03-24T15:54:21.123Z,15.93
2019-03-24T15:56:53.815Z,18.33
2019-03-24T15:59:26.535Z,19.83
2019-03-24T16:01:57.445Z,12.07
2019-03-24T16:04:28.398Z,21.10
2019-03-24T16:06:59.373Z,21.50
2019-03-24T16:09:30.192Z,18.20
2019-03-24T16:12:01.130Z,24.60
2019-03-24T16:14:31.984Z,15.80
2019-03-24T16:17:03.804Z,25.03
2019-03-24T16:19:35.022Z,25.73
2019-03-24T16:22:07.199Z,19.93
2019-03-24T16:24:38.226Z,18.57
2019-03-24T16:27:11.272Z,12.87
2019-03-24T16:29:42.169Z,14.30
2019-03-24T16:32:14.542Z,14.93
2019-03-24T16:34:45.653Z,12.23
2019-03-24T16:37:18.416Z,14.10
2019-03-24T16:39:49.271Z,21.43
2019-03-24T16:42:20.068Z,16.70
2019-03-24T16:44:52.539Z,13.00
2019-03-24T16:47:23.443Z,16.97
2019-03-24T16:49:54.301Z,9.63
2019-03-24T16:52:27.784Z,16.00
2019-03-24T16:54:58.761Z,20.33
2019-03-24T16:57:29.763Z,11.33
2019-03-24T17:00:00.762Z,14.53
2019-03-24T17:02:31.856Z,22.43
2019-03-24T17:05:02.813Z,19.13
2019-03-24T17:07:34.198Z,12.47
2019-03-24T17:10:06.900Z,12.87
2019-03-24T17:12:40.906Z,19.37
2019-03-24T17:15:12.442Z,16.33
2019-03-24T17:17:43.587Z,8.93
2019-03-24T17:20:17.457Z,16.13
2019-03-24T17:22:48.484Z,11.13
2019-03-24T17:25:19.450Z,22.77
2019-03-24T17:27:50.375Z,16.33
2019-03-24T17:30:24.440Z,13.30
2019-03-24T17:32:55.383Z,10.70
2019-03-24T17:35:26.315Z,16.00
2019-03-24T17:37:57.197Z,16.03
2019-03-24T17:40:28.115Z,22.87
2019-03-24T17:42:59.096Z,16.47
2019-03-24T17:45:30.131Z,15.17
2019-03-24T17:48:00.961Z,14.37
2019-03-24T17:50:32.004Z,15.10
2019-03-24T17:53:06.831Z,12.13
2019-03-24T17:55:38.022Z,14.87
2019-03-24T17:58:09.577Z,21.00
2019-03-24T18:00:43.366Z,41.20
2019-03-24T18:03:15.264Z,24.10
2019-03-24T18:05:46.084Z,34.87
2019-03-24T18:08:17.087Z,26.33
2019-03-24T18:10:48.104Z,31.67
2019-03-24T18:13:19.312Z,20.90
2019-03-24T18:15:50.364Z,17.07
2019-03-24T18:18:21.286Z,18.10
2019-03-24T18:20:54.552Z,20.13
2019-03-24T18:23:25.415Z,24.13
2019-03-24T18:25:56.291Z,23.30
2019-03-24T18:28:29.508Z,19.93
2019-03-24T18:31:00.511Z,16.00
2019-03-24T18:33:31.554Z,19.77
2019-03-24T18:36:02.502Z,17.43
2019-03-24T18:38:33.746Z,28.50
2019-03-24T18:41:06.228Z,12.30
2019-03-24T18:43:37.108Z,19.77
2019-03-24T18:46:07.921Z,20.47
2019-03-24T18:48:39.853Z,15.60
2019-03-24T18:51:10.779Z,13.20
2019-03-24T18:53:41.733Z,16.67
2019-03-24T18:56:12.608Z,18.90
2019-03-24T18:58:43.527Z,10.83
2019-03-24T19:01:14.487Z,12.87
2019-03-24T19:03:45.489Z,13.80
2019-03-24T19:06:18.254Z,18.00
2019-03-24T19:08:49.335Z,17.40
2019-03-24T19:11:20.284Z,15.43
2019-03-24T19:13:51.200Z,13.67
2019-03-24T19:16:22.094Z,11.90
2019-03-24T19:18:52.955Z,16.80
2019-03-24T19:21:23.878Z,11.57
2019-03-24T19:23:55.959Z,17.77
2019-03-24T19:26:28.463Z,16.93
2019-03-24T19:29:02.253Z,12.27
2019-03-24T19:31:34.629Z,15.97
2019-03-24T19:34:05.582Z,12.43
2019-03-24T19:39:39.118Z,13.30
2019-03-24T19:42:10.040Z,20.37
2019-03-24T19:44:40.965Z,16.97
2019-03-24T19:47:11.825Z,15.73
2019-03-24T19:49:42.649Z,21.77
2019-03-24T19:52:13.503Z,19.83
2019-03-24T19:54:44.419Z,17.93
2019-03-24T19:57:15.248Z,9.87
2019-03-24T19:59:47.568Z,11.07
2019-03-24T20:02:20.214Z,11.90
2019-03-24T20:04:51.080Z,13.13
2019-03-24T20:07:21.956Z,13.97
2019-03-24T20:09:52.850Z,11.40
2019-03-24T20:12:23.700Z,13.90
2019-03-24T20:14:54.927Z,15.87
2019-03-24T20:17:27.517Z,11.13
2019-03-24T20:19:58.387Z,13.40
2019-03-24T20:22:29.335Z,16.07
2019-03-24T20:25:00.358Z,17.77
2019-03-24T20:27:33.124Z,11.77
2019-03-24T20:30:04.058Z,20.67
2019-03-24T20:32:36.092Z,10.23
2019-03-24T20:35:08.563Z,12.23
2019-03-24T20:37:39.452Z,11.33
2019-03-24T20:40:11.232Z,13.70
2019-03-24T20:42:42.355Z,9.83
2019-03-24T20:45:14.108Z,14.97
2019-03-24T20:47:45.061Z,10.30
2019-03-24T20:50:16.843Z,13.50
2019-03-24T20:52:49.316Z,11.10
2019-03-24T20:55:20.334Z,13.63
2019-03-24T20:57:52.741Z,16.30
2019-03-24T21:00:42.593Z,18.67
2019-03-24T21:03:13.615Z,18.03
2019-03-24T21:05:44.569Z,8.47
2019-03-24T21:08:15.534Z,10.30
2019-03-24T21:10:46.571Z,12.47
2019-03-24T21:13:17.606Z,13.63
2019-03-24T21:15:49.554Z,13.97
2019-03-24T21:18:22.082Z,21.63
2019-03-24T21:20:54.574Z,11.90
2019-03-24T21:23:29.889Z,13.73
2019-03-24T21:25:59.874Z,13.63
2019-03-24T21:28:30.932Z,18.33
2019-03-24T21:31:01.867Z,13.37
2019-03-24T21:33:32.760Z,14.93
2019-03-24T21:36:03.867Z,17.33
2019-03-24T21:38:39.097Z,19.77
2019-03-24T21:41:10.109Z,17.20
2019-03-24T21:43:40.998Z,14.40
2019-03-24T21:46:11.999Z,14.97
2019-03-24T21:48:42.969Z,21.97
2019-03-24T21:51:14.029Z,19.57
2019-03-24T21:53:44.869Z,15.13
2019-03-24T21:56:15.744Z,13.60
2019-03-24T21:58:46.745Z,18.67
2019-03-24T22:01:17.584Z,15.77
2019-03-24T22:03:48.572Z,25.87
2019-03-24T22:06:19.429Z,19.13
2019-03-24T22:08:50.402Z,16.53
2019-03-24T22:11:21.392Z,22.50
2019-03-24T22:13:52.384Z,16.50
2019-03-24T22:16:25.835Z,21.23
2019-03-24T22:18:56.759Z,18.23
2019-03-24T22:21:27.688Z,16.13
2019-03-24T22:23:58.507Z,20.40
2019-03-24T22:26:29.315Z,19.53
2019-03-24T22:29:02.770Z,16.07
2019-03-24T22:31:33.693Z,15.13
2019-03-24T22:34:04.864Z,16.30
2019-03-24T22:36:35.734Z,16.00
2019-03-24T22:39:08.215Z,19.10
2019-03-24T22:41:43.858Z,19.30
2019-03-24T22:44:14.325Z,17.20
2019-03-24T22:46:45.200Z,19.47
2019-03-24T22:49:16.033Z,21.00
2019-03-24T22:51:46.907Z,18.97
2019-03-24T22:54:17.713Z,12.33
2019-03-24T22:56:48.666Z,16.87
2019-03-24T22:59:19.482Z,15.07
2019-03-24T23:01:50.322Z,23.57
2019-03-24T23:04:21.243Z,13.43
2019-03-24T23:06:52.079Z,19.13
2019-03-24T23:09:22.896Z,23.37
2019-03-24T23:11:53.746Z,16.70
2019-03-24T23:14:26.098Z,18.20
2019-03-24T23:16:56.976Z,16.23
2019-03-24T23:19:29.884Z,17.67
2019-03-24T23:22:00.393Z,13.30
2019-03-24T23:24:31.175Z,24.40
2019-03-24T23:27:02.075Z,16.77
2019-03-24T23:29:33.000Z,20.30
2019-03-24T23:32:03.838Z,21.73
2019-03-24T23:34:34.863Z,17.90
2019-03-24T23:37:12.062Z,24.37
2019-03-24T23:39:41.544Z,28.33
2019-03-24T23:42:12.486Z,21.73
2019-03-24T23:44:43.773Z,18.00
2019-03-24T23:47:14.724Z,29.17
2019-03-24T23:49:45.640Z,22.80
2019-03-24T23:52:16.403Z,40.70
2019-03-24T23:54:47.833Z,26.33
2019-03-24T23:57:18.660Z,31.70
2019-03-24T23:59:49.497Z,27.17
